Time;durP1;ratioP1;P1;durP2;ratioP2;P2;SDS_P1;SDS_P2;PMS_P1;PMS_P2;Temp;Humidity;BMP_temperature;BMP_pressure;BME280_temperature;BME280_humidity;BME280_pressure;Samples;Min_cycle;Max_cycle;Signal;HPM_P1;HPM_P2
2021/09/30 00:01:56;;;;;;;2.90;1.70;;;10.40;99.90;;;;;;21081612;28;20425;-51
2021/09/30 00:12:05;;;;;;;2.80;1.70;;;10.40;99.90;;;;;;21079904;28;20475;-51
2021/09/30 01:45:58;;;;;;;1.77;1.02;;;10.90;99.90;;;;;;21058109;28;20063;-55
2021/09/30 02:58:41;;;;;;;0.52;0.30;;;10.30;99.90;;;;;;21135532;28;20092;-53
2021/09/30 03:08:47;;;;;;;0.63;0.40;;;10.50;99.90;;;;;;21119779;28;20040;-52
2021/09/30 03:29:02;;;;;;;0.43;0.30;;;10.20;99.90;;;;;;21150541;28;20108;-54
2021/09/30 03:39:04;;;;;;;0.50;0.15;;;10.10;99.90;;;;;;21123010;28;20052;-52
2021/09/30 03:49:10;;;;;;;0.20;0.10;;;9.90;99.90;;;;;;21079879;28;20035;-54
2021/09/30 03:59:21;;;;;;;0.95;0.15;;;10.00;99.90;;;;;;21081996;28;20495;-56
2021/09/30 04:09:48;;;;;;;0.88;0.13;;;10.00;99.90;;;;;;21058456;28;20035;-51
2021/09/30 04:19:51;;;;;;;5.82;0.20;;;10.30;99.90;;;;;;21078863;28;20032;-51
2021/09/30 04:29:53;;;;;;;0.25;0.10;;;10.70;99.90;;;;;;21078194;28;20032;-54
2021/09/30 04:39:55;;;;;;;0.70;0.20;;;10.90;99.90;;;;;;21145331;27;20047;-51
2021/09/30 04:49:57;;;;;;;0.13;0.10;;;10.90;99.90;;;;;;21179559;27;20027;-51
2021/09/30 04:59:59;;;;;;;0.28;0.10;;;10.90;99.90;;;;;;21144840;28;20043;-52
2021/09/30 05:10:22;;;;;;;0.10;0.10;;;10.90;99.90;;;;;;21156540;28;20366;-53
2021/09/30 05:20:25;;;;;;;2.92;0.10;;;10.70;99.90;;;;;;21141627;28;20539;-56
2021/09/30 05:30:28;;;;;;;0.10;0.10;;;10.50;99.90;;;;;;21158073;28;20023;-51
2021/09/30 05:40:31;;;;;;;1.20;0.22;;;10.50;99.90;;;;;;21140358;28;20050;-51
2021/09/30 05:50:35;;;;;;;1.05;0.20;;;10.50;99.90;;;;;;21138967;28;20495;-50
2021/09/30 06:01:40;;;;;;;0.50;0.20;;;10.50;99.90;;;;;;21033166;28;20047;-51
2021/09/30 06:21:58;;;;;;;1.90;0.20;;;10.50;99.90;;;;;;21155030;28;20040;-54
2021/09/30 06:32:01;;;;;;;0.30;0.17;;;10.30;99.90;;;;;;21136694;28;20031;-55
2021/09/30 06:42:21;;;;;;;0.60;0.30;;;10.50;99.90;;;;;;21157257;28;20043;-50
2021/09/30 06:52:23;;;;;;;0.63;0.38;;;11.10;99.90;;;;;;21181751;28;20085;-53
2021/09/30 07:02:26;;;;;;;0.50;0.40;;;11.70;99.90;;;;;;21163716;28;20035;-51
2021/09/30 07:12:47;;;;;;;0.55;0.30;;;11.90;99.90;;;;;;21181274;28;20035;-51
2021/09/30 07:22:48;;;;;;;0.82;0.20;;;11.80;99.90;;;;;;21180956;28;20031;-56
2021/09/30 07:32:50;;;;;;;0.45;0.25;;;11.80;99.90;;;;;;21162607;28;20555;-49
2021/09/30 07:42:53;;;;;;;0.50;0.30;;;12.60;99.90;;;;;;21179937;28;20088;-50
2021/09/30 07:52:57;;;;;;;1.67;0.25;;;13.20;99.90;;;;;;21179809;28;20051;-50
2021/09/30 08:02:59;;;;;;;0.93;0.20;;;14.00;99.90;;;;;;21146290;28;20061;-50
2021/09/30 08:13:01;;;;;;;0.63;0.20;;;14.70;99.90;;;;;;21164329;28;20031;-49
2021/09/30 08:23:03;;;;;;;0.40;0.30;;;15.70;99.90;;;;;;21165380;28;20035;-48
2021/09/30 08:33:05;;;;;;;2.13;0.40;;;16.60;99.90;;;;;;21163910;28;20391;-54
2021/09/30 08:43:07;;;;;;;0.60;0.30;;;17.70;99.90;;;;;;21219911;27;20050;-49
2021/09/30 08:53:12;;;;;;;1.00;0.40;;;18.90;99.90;;;;;;21170880;27;20043;-50
2021/09/30 09:03:16;;;;;;;3.47;2.20;;;19.30;98.60;;;;;;21143074;28;20073;-50
2021/09/30 09:13:19;;;;;;;3.22;1.80;;;19.50;99.90;;;;;;21229035;27;20042;-53
2021/09/30 09:23:20;;;;;;;4.10;2.45;;;20.00;99.90;;;;;;21244820;27;20035;-51
2021/09/30 09:33:28;;;;;;;4.38;2.00;;;19.00;98.90;;;;;;21244198;27;20035;-54
2021/09/30 09:43:39;;;;;;;3.55;2.15;;;18.80;99.90;;;;;;21244388;27;20035;-51
2021/09/30 09:53:41;;;;;;;3.88;2.50;;;18.50;99.90;;;;;;21162856;27;20051;-52
2021/09/30 10:03:57;;;;;;;3.47;2.63;;;18.50;99.90;;;;;;21156430;28;20096;-53
2021/09/30 10:14:03;;;;;;;3.47;2.47;;;18.20;99.90;;;;;;21233941;27;20717;-55
2021/09/30 10:24:13;;;;;;;2.45;1.88;;;18.40;99.90;;;;;;21239956;27;20031;-56
2021/09/30 10:34:29;;;;;;;1.30;0.93;;;18.40;99.90;;;;;;21239513;27;20035;-51
2021/09/30 10:44:34;;;;;;;1.85;0.90;;;18.10;99.90;;;;;;21236433;27;20551;-53
2021/09/30 10:54:40;;;;;;;1.92;0.85;;;17.90;99.90;;;;;;21153964;28;20554;-51
2021/09/30 11:05:02;;;;;;;1.15;0.70;;;17.40;99.90;;;;;;21153574;28;20053;-56
2021/09/30 11:15:04;;;;;;;1.55;0.30;;;17.40;99.90;;;;;;21135021;28;20036;-53
2021/09/30 11:25:07;;;;;;;1.13;0.60;;;17.40;99.90;;;;;;21152916;28;20055;-55
2021/09/30 11:35:08;;;;;;;0.98;0.30;;;17.40;99.90;;;;;;21163491;28;20035;-56
2021/09/30 11:45:15;;;;;;;0.52;0.38;;;17.10;99.90;;;;;;21093246;28;20445;-56
2021/09/30 11:55:18;;;;;;;1.15;0.60;;;17.60;99.90;;;;;;21063674;28;20078;-55
2021/09/30 12:05:20;;;;;;;2.63;0.60;;;17.30;99.90;;;;;;21081464;28;20089;-54
2021/09/30 12:15:23;;;;;;;0.68;0.32;;;16.90;99.90;;;;;;21062850;28;20039;-50
2021/09/30 12:25:27;;;;;;;1.15;0.60;;;17.00;99.90;;;;;;21079870;28;20032;-53
2021/09/30 12:35:35;;;;;;;0.60;0.50;;;16.80;99.90;;;;;;21079298;28;20372;-55
2021/09/30 12:45:57;;;;;;;1.40;0.77;;;16.30;99.90;;;;;;21221715;27;20036;-57
2021/09/30 12:56:05;;;;;;;1.08;0.50;;;16.10;99.90;;;;;;21148513;28;20051;-55
2021/09/30 13:06:08;;;;;;;0.82;0.50;;;16.40;99.90;;;;;;21161079;28;20035;-51
2021/09/30 13:16:24;;;;;;;1.88;0.80;;;16.70;99.90;;;;;;21160613;28;20040;-52
2021/09/30 13:26:26;;;;;;;1.55;0.80;;;16.60;99.90;;;;;;21159734;28;20032;-55
2021/09/30 13:36:30;;;;;;;1.35;0.75;;;16.80;99.90;;;;;;21150892;28;20043;-55
2021/09/30 13:46:32;;;;;;;2.13;0.82;;;16.80;99.90;;;;;;21155289;28;20096;-55
2021/09/30 13:56:34;;;;;;;1.10;0.60;;;16.10;99.90;;;;;;21156659;28;20038;-51
2021/09/30 14:06:35;;;;;;;1.55;0.50;;;16.00;99.90;;;;;;21156175;28;20106;-53
2021/09/30 14:16:37;;;;;;;1.45;0.80;;;16.20;99.90;;;;;;21156664;28;20040;-57
2021/09/30 14:26:39;;;;;;;2.10;1.13;;;16.40;99.90;;;;;;21137964;28;20338;-52
2021/09/30 14:36:41;;;;;;;3.20;0.75;;;16.10;99.90;;;;;;21154477;28;20039;-53
2021/09/30 14:46:43;;;;;;;2.08;1.33;;;15.40;99.90;;;;;;21153810;28;20051;-52
2021/09/30 14:56:47;;;;;;;1.58;0.93;;;14.70;99.90;;;;;;21153896;28;20082;-52
2021/09/30 15:06:50;;;;;;;3.03;0.90;;;14.30;99.90;;;;;;21142873;28;20032;-52
2021/09/30 15:27:24;;;;;;;1.67;1.00;;;14.10;99.90;;;;;;21151822;28;20100;-51
2021/09/30 15:37:25;;;;;;;1.85;0.90;;;14.10;99.90;;;;;;21168310;28;20051;-54
2021/09/30 15:47:28;;;;;;;2.13;0.98;;;14.00;99.90;;;;;;21167563;28;20116;-51
2021/09/30 15:57:30;;;;;;;11.60;0.93;;;13.80;99.90;;;;;;21166641;28;20077;-56
2021/09/30 16:07:31;;;;;;;2.22;1.10;;;13.80;99.90;;;;;;21182871;27;20092;-51
2021/09/30 16:17:33;;;;;;;2.85;0.80;;;13.80;99.90;;;;;;21249886;27;20030;-56
2021/09/30 16:27:36;;;;;;;1.55;0.73;;;13.60;99.90;;;;;;21249585;27;20085;-54
2021/09/30 16:37:38;;;;;;;1.77;0.90;;;13.30;99.90;;;;;;21248110;27;20043;-52
2021/09/30 16:47:40;;;;;;;1.52;0.88;;;13.00;99.90;;;;;;21217961;27;20031;-51
2021/09/30 16:57:43;;;;;;;2.38;0.80;;;13.00;99.90;;;;;;21160688;28;20031;-53
2021/09/30 17:07:45;;;;;;;1.50;0.70;;;12.60;99.90;;;;;;21179291;27;20039;-51
2021/09/30 17:17:50;;;;;;;1.15;0.65;;;12.00;99.90;;;;;;21244931;27;20475;-53
2021/09/30 17:27:52;;;;;;;1.95;0.93;;;11.60;99.90;;;;;;21224945;27;20031;-51
2021/09/30 17:37:54;;;;;;;1.52;0.85;;;11.10;99.90;;;;;;21235628;27;20092;-51
2021/09/30 17:47:56;;;;;;;2.22;1.08;;;10.70;99.90;;;;;;21210378;27;20062;-57
2021/09/30 17:57:58;;;;;;;2.95;1.48;;;10.00;99.90;;;;;;21156502;28;20042;-53
2021/09/30 18:08:01;;;;;;;3.10;1.63;;;9.70;99.90;;;;;;21155178;28;20031;-55
2021/09/30 18:18:03;;;;;;;4.75;1.85;;;9.60;99.90;;;;;;21139228;28;20096;-54
2021/09/30 18:28:05;;;;;;;4.80;2.42;;;9.50;99.90;;;;;;21154677;28;20042;-55
2021/09/30 18:38:07;;;;;;;3.47;2.20;;;9.60;99.90;;;;;;21153694;28;20039;-55
2021/09/30 18:48:09;;;;;;;3.13;2.20;;;9.50;99.90;;;;;;21153423;28;20085;-52
2021/09/30 18:58:11;;;;;;;5.90;2.60;;;9.30;99.90;;;;;;21153520;28;20032;-56
2021/09/30 19:08:15;;;;;;;6.22;3.70;;;9.00;99.90;;;;;;21134551;28;20034;-53
2021/09/30 19:18:21;;;;;;;5.18;2.72;;;8.70;99.90;;;;;;21153636;28;20039;-55
2021/09/30 19:28:25;;;;;;;6.38;3.72;;;8.60;99.90;;;;;;21132729;28;20073;-52
2021/09/30 19:38:28;;;;;;;9.00;4.78;;;8.40;99.90;;;;;;21151438;28;20044;-56
2021/09/30 19:48:30;;;;;;;7.85;4.45;;;8.30;99.90;;;;;;21148381;28;20032;-65
2021/09/30 19:58:31;;;;;;;8.50;4.60;;;8.30;99.90;;;;;;21164865;28;20027;-53
2021/09/30 20:08:33;;;;;;;7.10;4.53;;;8.30;99.90;;;;;;21190855;27;20042;-52
2021/09/30 20:18:36;;;;;;;8.05;4.82;;;8.20;99.90;;;;;;21187552;27;20065;-55
2021/09/30 20:28:38;;;;;;;8.32;4.82;;;8.10;99.90;;;;;;21163640;28;20035;-51
2021/09/30 20:38:40;;;;;;;8.75;6.07;;;8.20;99.90;;;;;;21162595;28;20574;-54
2021/09/30 20:48:43;;;;;;;9.32;6.60;;;8.40;99.90;;;;;;21162063;28;20089;-51
2021/09/30 20:58:45;;;;;;;10.00;5.57;;;8.70;99.90;;;;;;21161529;28;20032;-50
2021/09/30 21:08:48;;;;;;;6.55;3.72;;;9.00;99.90;;;;;;21188508;27;20398;-55
2021/09/30 21:18:50;;;;;;;6.90;3.20;;;9.40;99.90;;;;;;21167449;27;20231;-55
2021/09/30 21:28:52;;;;;;;5.85;2.85;;;9.60;99.90;;;;;;21160516;28;20093;-50
2021/09/30 21:38:55;;;;;;;5.95;2.97;;;10.00;99.90;;;;;;21159154;28;20089;-51
2021/09/30 21:48:56;;;;;;;11.85;2.78;;;10.10;99.90;;;;;;21157862;28;20039;-56
2021/09/30 21:58:58;;;;;;;3.03;1.83;;;10.20;99.90;;;;;;21155499;28;20027;-52
2021/09/30 22:09:01;;;;;;;5.47;1.85;;;10.30;99.90;;;;;;21145194;28;20040;-51
2021/09/30 22:19:03;;;;;;;2.50;1.60;;;10.50;99.90;;;;;;21155227;28;20097;-53
2021/09/30 22:29:05;;;;;;;3.42;1.60;;;10.60;99.90;;;;;;21154820;28;20038;-55
2021/09/30 22:39:07;;;;;;;2.90;1.65;;;10.50;99.90;;;;;;21154601;28;20560;-54
2021/09/30 22:49:10;;;;;;;4.50;2.17;;;10.50;99.90;;;;;;21154073;28;20080;-54
2021/09/30 22:59:12;;;;;;;2.30;1.63;;;10.50;99.90;;;;;;21153291;28;20471;-56
2021/09/30 23:09:14;;;;;;;2.50;1.45;;;10.70;99.90;;;;;;21153045;28;20057;-53
2021/09/30 23:19:17;;;;;;;4.13;2.15;;;10.60;99.90;;;;;;21152874;28;20471;-51
2021/09/30 23:29:20;;;;;;;2.13;1.55;;;10.60;99.90;;;;;;21160266;28;20383;-56
2021/09/30 23:39:22;;;;;;;4.18;2.03;;;10.60;99.90;;;;;;21168126;28;20044;-53
2021/09/30 23:49:24;;;;;;;2.58;1.70;;;10.60;99.90;;;;;;21167222;28;20024;-50
2021/09/30 23:59:26;;;;;;;2.45;1.85;;;10.60;99.90;;;;;;21166686;28;20028;-56
